Time;durP1;ratioP1;P1;durP2;ratioP2;P2;SDS_P1;SDS_P2;PMS_P1;PMS_P2;Temp;Humidity;BMP_temperature;BMP_pressure;BME280_temperature;BME280_humidity;BME280_pressure;Samples;Min_cycle;Max_cycle;Signal;HPM_P1;HPM_P2
2024/01/25 00:01:49;;;;;;;11.15;5.88;;;;;;;3.97;100.00;97490.00;5098593;28;20052;-56
2024/01/25 00:04:15;;;;;;;11.25;6.45;;;;;;;3.87;100.00;97506.88;5098988;28;20052;-56
2024/01/25 00:06:42;;;;;;;7.65;5.40;;;;;;;4.04;100.00;97500.19;5098458;28;20062;-58
2024/01/25 00:09:08;;;;;;;16.23;6.15;;;;;;;3.84;100.00;97515.72;5098692;28;20177;-54
2024/01/25 00:11:35;;;;;;;7.22;5.30;;;;;;;3.83;100.00;97511.44;5098725;28;20084;-58
2024/01/25 00:14:01;;;;;;;15.27;6.60;;;;;;;3.81;100.00;97506.38;5098363;28;20433;-55
2024/01/25 00:16:27;;;;;;;9.32;5.55;;;;;;;4.01;100.00;97504.41;5098391;28;20427;-59
2024/01/25 00:18:54;;;;;;;10.63;6.50;;;;;;;3.52;100.00;97510.50;5098216;28;20048;-57
2024/01/25 00:21:20;;;;;;;8.07;5.38;;;;;;;3.78;100.00;97483.47;5098552;28;20048;-60
2024/01/25 00:23:47;;;;;;;12.38;6.30;;;;;;;3.89;100.00;97480.94;5098198;28;20113;-57
2024/01/25 00:26:13;;;;;;;15.77;6.80;;;;;;;3.84;100.00;97477.78;5098637;28;20058;-58
2024/01/25 00:28:39;;;;;;;8.90;5.30;;;;;;;3.96;100.00;97466.72;5098214;28;20143;-55
2024/01/25 00:31:05;;;;;;;13.60;6.43;;;;;;;4.01;100.00;97471.88;5098523;28;20058;-57
2024/01/25 00:33:31;;;;;;;10.50;6.20;;;;;;;4.07;100.00;97472.34;5098067;28;20044;-56
2024/01/25 00:35:59;;;;;;;8.93;5.43;;;;;;;4.00;100.00;97473.00;5098485;28;20478;-54
2024/01/25 00:38:26;;;;;;;8.07;5.60;;;;;;;4.03;100.00;97474.97;5098265;28;20321;-57
2024/01/25 00:40:53;;;;;;;12.40;6.47;;;;;;;3.86;100.00;97468.13;5098131;28;20086;-57
2024/01/25 00:43:20;;;;;;;13.95;5.68;;;;;;;4.07;100.00;97465.00;5098212;28;20381;-60
2024/01/25 00:45:46;;;;;;;9.93;5.65;;;;;;;3.97;100.00;97469.09;5097761;28;20066;-59
2024/01/25 00:48:13;;;;;;;12.07;5.82;;;;;;;3.95;100.00;97468.66;5098212;28;20131;-60
2024/01/25 00:50:40;;;;;;;10.95;5.93;;;;;;;3.96;100.00;97466.72;5097779;28;20397;-58
2024/01/25 00:53:08;;;;;;;8.13;5.35;;;;;;;3.87;100.00;97452.66;5098130;28;20048;-54
2024/01/25 00:55:37;;;;;;;7.95;5.32;;;;;;;3.99;100.00;97449.75;5097803;28;20139;-60
2024/01/25 00:58:04;;;;;;;9.95;5.28;;;;;;;3.77;100.00;97446.69;5098091;28;20044;-54
2024/01/25 01:00:31;;;;;;;9.18;5.18;;;;;;;3.84;100.00;97437.13;5097002;28;20043;-58
2024/01/25 01:03:01;;;;;;;13.18;6.15;;;;;;;4.12;100.00;97431.34;5098104;28;20048;-59
2024/01/25 01:05:28;;;;;;;13.25;5.55;;;;;;;4.16;100.00;97438.38;5097819;28;20139;-54
2024/01/25 01:07:54;;;;;;;8.88;5.55;;;;;;;3.94;100.00;97441.94;5097738;28;20138;-59
2024/01/25 01:10:21;;;;;;;15.98;5.95;;;;;;;4.07;100.00;97437.88;5097820;28;20361;-60
2024/01/25 01:12:47;;;;;;;7.13;5.20;;;;;;;4.07;100.00;97439.81;5097429;28;20138;-60
2024/01/25 01:15:13;;;;;;;9.38;6.03;;;;;;;3.95;100.00;97449.69;5097581;28;20471;-54
2024/01/25 01:17:40;;;;;;;10.73;6.15;;;;;;;3.84;100.00;97435.19;5097331;28;20058;-60
2024/01/25 01:20:07;;;;;;;9.85;5.60;;;;;;;3.98;100.00;97431.91;5097717;28;20106;-55
2024/01/25 01:22:33;;;;;;;11.73;5.30;;;;;;;4.05;100.00;97431.25;5097248;28;20464;-56
2024/01/25 01:24:59;;;;;;;9.18;5.80;;;;;;;4.14;100.00;97412.78;5097577;28;20044;-58
2024/01/25 01:27:26;;;;;;;11.65;6.05;;;;;;;4.31;100.00;97428.53;5097258;28;20052;-61
2024/01/25 01:29:52;;;;;;;10.80;6.32;;;;;;;4.15;100.00;97431.41;5097682;28;20058;-60
2024/01/25 01:32:18;;;;;;;10.18;5.55;;;;;;;4.16;100.00;97421.34;5097187;28;20395;-54
2024/01/25 01:34:44;;;;;;;8.50;5.95;;;;;;;4.25;100.00;97436.19;5097326;28;20439;-61
2024/01/25 01:37:11;;;;;;;10.63;6.22;;;;;;;3.99;100.00;97439.66;5097254;28;20112;-54
2024/01/25 01:39:37;;;;;;;10.70;6.07;;;;;;;4.03;100.00;97430.81;5097206;28;20055;-57
2024/01/25 01:42:03;;;;;;;10.10;5.72;;;;;;;4.00;100.00;97427.69;5097306;28;20066;-60
2024/01/25 01:44:30;;;;;;;10.65;5.82;;;;;;;4.12;100.00;97423.22;5097060;28;20159;-58
2024/01/25 01:46:56;;;;;;;11.13;5.75;;;;;;;4.32;100.00;97432.81;5097149;28;20393;-55
2024/01/25 01:49:23;;;;;;;13.93;6.50;;;;;;;4.15;100.00;97442.25;5096839;28;20451;-60
2024/01/25 01:51:50;;;;;;;12.68;6.65;;;;;;;4.04;100.00;97438.59;5097112;28;20144;-55
2024/01/25 01:54:16;;;;;;;11.18;5.38;;;;;;;4.20;100.00;97435.75;5096863;28;20134;-56
2024/01/25 01:56:44;;;;;;;10.18;5.63;;;;;;;4.03;100.00;97434.31;5097246;28;20135;-58
2024/01/25 01:59:11;;;;;;;15.18;6.43;;;;;;;4.10;100.00;97441.75;5096693;28;20059;-56
2024/01/25 02:01:38;;;;;;;10.35;6.22;;;;;;;4.03;100.00;97422.69;5097170;28;20192;-61
2024/01/25 02:04:05;;;;;;;8.43;5.90;;;;;;;4.19;100.00;97418.66;5096845;28;20292;-55
2024/01/25 02:06:31;;;;;;;9.40;5.45;;;;;;;3.92;100.00;97417.09;5096784;28;20201;-59
2024/01/25 02:08:58;;;;;;;11.20;6.05;;;;;;;4.13;100.00;97409.31;5096668;28;20147;-60
2024/01/25 02:11:25;;;;;;;9.75;5.50;;;;;;;4.25;100.00;97425.34;5095502;28;20056;-57
2024/01/25 02:13:51;;;;;;;10.73;5.85;;;;;;;4.15;100.00;97423.25;5096892;28;20054;-59
2024/01/25 02:16:18;;;;;;;15.77;5.82;;;;;;;4.24;100.00;97423.78;5096449;28;20083;-54
2024/01/25 02:18:45;;;;;;;8.10;4.90;;;;;;;4.20;100.00;97431.09;5096737;28;20457;-58
2024/01/25 02:21:11;;;;;;;11.02;5.45;;;;;;;4.24;100.00;97433.88;5096480;28;20134;-60
2024/01/25 02:23:38;;;;;;;8.13;5.15;;;;;;;4.27;100.00;97430.44;5096868;28;20059;-56
2024/01/25 02:26:04;;;;;;;8.80;5.53;;;;;;;4.22;100.00;97445.06;5096241;28;20062;-55
2024/01/25 02:28:31;;;;;;;11.20;5.80;;;;;;;4.24;100.00;97428.44;5096718;28;20096;-59
2024/01/25 02:30:58;;;;;;;16.05;5.18;;;;;;;4.19;100.00;97415.19;5096257;28;20388;-54
2024/01/25 02:33:25;;;;;;;7.15;5.40;;;;;;;4.28;100.00;97423.84;5096462;28;20056;-61
2024/01/25 02:35:51;;;;;;;10.30;6.00;;;;;;;4.17;100.00;97420.97;5096537;28;20055;-56
2024/01/25 02:38:17;;;;;;;8.57;5.25;;;;;;;4.04;100.00;97414.19;5096370;28;20471;-57
2024/01/25 02:40:44;;;;;;;8.02;4.70;;;;;;;4.23;100.00;97408.69;5096355;28;20063;-60
2024/01/25 02:43:10;;;;;;;8.15;4.78;;;;;;;4.19;100.00;97407.03;5096245;28;20112;-53
2024/01/25 02:45:36;;;;;;;10.32;4.80;;;;;;;4.21;100.00;97397.41;5095943;28;20431;-59
2024/01/25 02:48:03;;;;;;;6.22;4.25;;;;;;;4.35;100.00;97401.47;5096153;28;20135;-57
2024/01/25 02:50:29;;;;;;;9.32;5.10;;;;;;;4.11;100.00;97421.66;5096395;28;20048;-55
2024/01/25 02:52:55;;;;;;;6.38;4.68;;;;;;;4.07;100.00;97408.03;5096105;28;20048;-60
2024/01/25 02:55:22;;;;;;;7.55;4.45;;;;;;;4.15;100.00;97414.34;5096486;28;20048;-57
2024/01/25 02:57:49;;;;;;;9.10;4.30;;;;;;;3.97;100.00;97427.66;5095957;28;20139;-60
2024/01/25 03:00:15;;;;;;;5.53;4.40;;;;;;;4.06;100.00;97422.72;5096184;28;20336;-58
2024/01/25 03:02:41;;;;;;;9.60;5.03;;;;;;;4.32;100.00;97408.41;5095949;28;20146;-55
2024/01/25 03:05:08;;;;;;;7.53;4.05;;;;;;;4.25;100.00;97417.22;5096033;28;20070;-60
2024/01/25 03:07:34;;;;;;;6.35;4.57;;;;;;;4.01;100.00;97423.84;5096125;28;20052;-54
2024/01/25 03:10:00;;;;;;;4.88;3.97;;;;;;;4.06;100.00;97428.16;5095981;28;20096;-60
2024/01/25 03:12:26;;;;;;;3.80;3.45;;;;;;;4.08;100.00;97412.31;5096092;28;20136;-56
2024/01/25 03:14:53;;;;;;;5.75;4.07;;;;;;;4.21;100.00;97429.94;5095912;28;20391;-57
2024/01/25 03:17:19;;;;;;;6.32;3.85;;;;;;;4.14;100.00;97419.00;5096036;28;20522;-59
2024/01/25 03:19:45;;;;;;;5.57;3.50;;;;;;;4.29;100.00;97438.19;5095629;28;20365;-57
2024/01/25 03:22:11;;;;;;;6.65;3.88;;;;;;;4.14;100.00;97448.81;5096242;28;20052;-59
2024/01/25 03:24:38;;;;;;;5.80;3.65;;;;;;;4.02;100.00;97440.88;5099104;28;20139;-60
2024/01/25 03:27:04;;;;;;;9.90;3.83;;;;;;;3.96;100.00;97434.19;5099557;28;20077;-58
2024/01/25 03:29:31;;;;;;;5.13;3.28;;;;;;;4.17;100.00;97442.69;5099352;28;20113;-57
2024/01/25 03:31:58;;;;;;;7.53;3.72;;;;;;;4.18;100.00;97438.03;5099291;28;20387;-55
2024/01/25 03:34:24;;;;;;;5.43;3.63;;;;;;;4.15;100.00;97441.47;5099157;28;20051;-60
2024/01/25 03:36:52;;;;;;;5.47;3.75;;;;;;;3.95;100.00;97440.78;5099090;28;20130;-59
2024/01/25 03:39:19;;;;;;;4.38;3.20;;;;;;;4.21;100.00;97432.66;5099126;28;20056;-58
2024/01/25 03:41:45;;;;;;;5.55;3.88;;;;;;;4.19;100.00;97434.94;5098870;28;20515;-60
2024/01/25 03:44:11;;;;;;;4.35;3.15;;;;;;;4.21;100.00;97440.78;5099160;28;20378;-55
2024/01/25 03:46:37;;;;;;;6.63;3.72;;;;;;;4.15;100.00;97442.25;5098888;28;20056;-59
2024/01/25 03:49:04;;;;;;;8.07;3.80;;;;;;;4.07;100.00;97445.22;5099222;28;20048;-57
2024/01/25 03:51:30;;;;;;;5.78;3.85;;;;;;;4.13;100.00;97451.88;5098601;28;20052;-57
2024/01/25 03:53:58;;;;;;;6.93;3.42;;;;;;;4.15;100.00;97447.69;5099143;28;20134;-59
2024/01/25 03:56:24;;;;;;;8.40;3.78;;;;;;;3.99;100.00;97447.81;5098544;28;20452;-60
2024/01/25 03:58:50;;;;;;;6.63;3.67;;;;;;;4.09;100.00;97441.00;5098565;28;20427;-54
2024/01/25 04:01:16;;;;;;;7.07;3.28;;;;;;;3.97;100.00;97425.72;5098540;28;20052;-61
2024/01/25 04:03:42;;;;;;;6.18;3.22;;;;;;;3.90;100.00;97433.75;5098712;28;20056;-56
2024/01/25 04:06:09;;;;;;;10.02;3.28;;;;;;;4.01;100.00;97425.75;5098806;28;20147;-59
2024/01/25 04:08:35;;;;;;;4.70;2.70;;;;;;;3.90;100.00;97414.75;5098469;28;20051;-60
2024/01/25 04:11:01;;;;;;;5.57;3.25;;;;;;;4.09;100.00;97421.22;5098628;28;20419;-58
2024/01/25 04:13:28;;;;;;;6.30;3.15;;;;;;;3.81;100.00;97427.78;5098481;28;20062;-60
2024/01/25 04:15:54;;;;;;;4.53;2.55;;;;;;;4.00;100.00;97432.34;5098841;28;20060;-57
2024/01/25 04:18:20;;;;;;;3.67;2.65;;;;;;;4.05;100.00;97431.25;5098237;28;20131;-57
2024/01/25 04:20:47;;;;;;;3.85;2.90;;;;;;;3.96;100.00;97443.09;5098653;28;20052;-60
2024/01/25 04:23:14;;;;;;;6.75;2.83;;;;;;;4.04;100.00;97438.59;5098152;28;20044;-60
2024/01/25 04:25:40;;;;;;;5.78;3.15;;;;;;;4.12;100.00;97437.56;5098552;28;20059;-57
2024/01/25 04:28:06;;;;;;;10.23;3.17;;;;;;;3.98;100.00;97443.53;5098095;28;20048;-62
2024/01/25 04:30:32;;;;;;;9.93;3.10;;;;;;;3.98;100.00;97448.19;5098364;28;20138;-55
2024/01/25 04:32:59;;;;;;;7.72;4.13;;;;;;;4.06;100.00;97430.88;5098135;28;20048;-60
2024/01/25 04:35:25;;;;;;;5.60;2.55;;;;;;;3.93;100.00;97430.31;5097031;28;20371;-59
2024/01/25 04:37:51;;;;;;;6.07;2.88;;;;;;;3.96;100.00;97420.63;5098075;28;20405;-57
2024/01/25 04:40:19;;;;;;;5.55;2.95;;;;;;;3.91;100.00;97432.59;5097908;28;20052;-55
2024/01/25 04:42:45;;;;;;;7.28;2.95;;;;;;;4.03;100.00;97422.69;5098359;28;20316;-58
2024/01/25 04:45:11;;;;;;;3.63;2.80;;;;;;;4.02;100.00;97427.31;5097794;28;20052;-56
2024/01/25 04:47:38;;;;;;;6.13;3.00;;;;;;;3.93;100.00;97424.88;5098310;28;20301;-61
2024/01/25 04:50:05;;;;;;;5.45;2.65;;;;;;;3.87;100.00;97420.91;5097723;28;20332;-59
2024/01/25 04:52:31;;;;;;;6.05;3.90;;;;;;;4.00;100.00;97426.91;5098241;28;20142;-59
2024/01/25 04:54:57;;;;;;;10.75;3.95;;;;;;;3.91;100.00;97429.88;5097952;28;20056;-58
2024/01/25 04:57:24;;;;;;;6.47;3.10;;;;;;;3.97;100.00;97424.94;5097543;28;20144;-60
2024/01/25 04:59:50;;;;;;;5.70;3.20;;;;;;;4.08;100.00;97420.44;5097755;28;20052;-59
2024/01/25 05:02:16;;;;;;;6.38;2.85;;;;;;;3.94;100.00;97422.94;5097455;28;20436;-58
2024/01/25 05:04:42;;;;;;;4.57;2.85;;;;;;;4.05;100.00;97425.81;5097696;28;20144;-60
2024/01/25 05:07:08;;;;;;;4.40;3.25;;;;;;;3.78;100.00;97429.28;5097571;28;20048;-57
2024/01/25 05:09:35;;;;;;;28.35;3.92;;;;;;;4.07;100.00;97424.31;5097450;28;20143;-62
2024/01/25 05:12:02;;;;;;;4.57;3.15;;;;;;;4.14;100.00;97429.84;5097382;28;20052;-65
2024/01/25 05:14:28;;;;;;;3.65;2.47;;;;;;;4.11;100.00;97432.50;5097804;28;20440;-66
2024/01/25 05:16:54;;;;;;;6.90;3.30;;;;;;;4.20;100.00;97430.31;5097040;28;20093;-68
2024/01/25 05:19:21;;;;;;;8.38;4.38;;;;;;;4.18;100.00;97443.47;5097115;28;20171;-65
2024/01/25 05:21:47;;;;;;;5.32;3.42;;;;;;;4.08;100.00;97449.50;5097106;28;20135;-64
2024/01/25 05:24:13;;;;;;;6.13;2.60;;;;;;;4.11;100.00;97448.78;5097055;28;20151;-67
2024/01/25 05:26:39;;;;;;;4.80;2.97;;;;;;;4.01;100.00;97447.47;5097313;28;20185;-64
2024/01/25 05:29:05;;;;;;;5.20;2.97;;;;;;;4.06;100.00;97447.13;5097095;28;20060;-67
2024/01/25 05:31:32;;;;;;;6.05;2.95;;;;;;;4.22;100.00;97438.84;5097049;28;20146;-63
2024/01/25 05:33:58;;;;;;;3.08;2.78;;;;;;;4.28;100.00;97444.75;5097128;28;20052;-65
2024/01/25 05:36:25;;;;;;;4.82;3.30;;;;;;;4.56;100.00;97452.53;5097209;28;20055;-64
2024/01/25 05:38:51;;;;;;;6.28;4.00;;;;;;;4.39;100.00;97464.69;5096959;28;20130;-63
2024/01/25 05:41:17;;;;;;;6.78;4.05;;;;;;;4.29;100.00;97468.03;5097199;28;20144;-64
2024/01/25 05:43:43;;;;;;;3.80;2.90;;;;;;;4.29;100.00;97462.59;5096921;28;20116;-64
2024/01/25 05:46:09;;;;;;;5.57;3.20;;;;;;;4.22;100.00;97464.06;5096832;28;20146;-64
2024/01/25 05:48:36;;;;;;;11.32;5.32;;;;;;;4.25;100.00;97457.91;5096788;28;20052;-63
2024/01/25 05:51:03;;;;;;;6.53;3.40;;;;;;;4.24;100.00;97459.06;5097010;28;20147;-64
2024/01/25 05:53:29;;;;;;;7.25;3.30;;;;;;;4.19;100.00;97453.94;5096228;28;20060;-64
2024/01/25 05:55:55;;;;;;;3.78;2.60;;;;;;;4.41;100.00;97448.84;5096459;28;20465;-67
2024/01/25 05:58:21;;;;;;;4.70;3.17;;;;;;;4.26;100.00;97461.38;5096570;28;20464;-61
2024/01/25 06:00:47;;;;;;;7.25;3.28;;;;;;;4.30;100.00;97456.03;5096641;28;20390;-62
2024/01/25 06:03:13;;;;;;;4.20;2.92;;;;;;;4.35;100.00;97461.94;5096395;28;20044;-62
2024/01/25 06:05:40;;;;;;;7.13;3.40;;;;;;;4.19;100.00;97464.00;5096276;28;20417;-61
2024/01/25 06:08:06;;;;;;;4.25;3.40;;;;;;;4.38;100.00;97465.84;5096515;28;20079;-60
2024/01/25 06:10:33;;;;;;;5.43;3.30;;;;;;;4.44;100.00;97465.16;5096472;28;20047;-61
2024/01/25 06:12:59;;;;;;;5.03;3.35;;;;;;;4.25;100.00;97471.47;5096451;28;20358;-62
2024/01/25 06:15:25;;;;;;;3.60;3.10;;;;;;;4.38;100.00;97477.47;5096216;28;20425;-62
2024/01/25 06:17:51;;;;;;;3.78;2.90;;;;;;;4.43;100.00;97479.09;5096200;28;20048;-62
2024/01/25 06:20:17;;;;;;;3.25;2.72;;;;;;;4.47;100.00;97475.28;5096092;28;20113;-64
2024/01/25 06:22:44;;;;;;;4.25;3.05;;;;;;;4.12;100.00;97480.94;5096473;28;20063;-63
2024/01/25 06:25:10;;;;;;;3.88;2.20;;;;;;;4.33;100.00;97471.56;5095939;28;20054;-64
2024/01/25 06:27:36;;;;;;;10.82;2.67;;;;;;;4.29;100.00;97473.44;5096255;28;20062;-63
2024/01/25 06:30:04;;;;;;;7.32;2.95;;;;;;;4.19;100.00;97478.34;5096324;28;20048;-60
2024/01/25 06:32:30;;;;;;;4.70;3.20;;;;;;;4.35;100.00;97480.13;5096120;28;20048;-62
2024/01/25 06:34:56;;;;;;;4.57;2.90;;;;;;;4.36;100.00;97484.41;5096363;28;20054;-61
2024/01/25 06:37:22;;;;;;;6.72;3.50;;;;;;;4.29;100.00;97485.06;5096048;28;20189;-65
2024/01/25 06:39:49;;;;;;;4.20;3.13;;;;;;;4.28;100.00;97485.47;5096327;28;20134;-57
2024/01/25 06:42:15;;;;;;;6.28;3.35;;;;;;;4.33;100.00;97479.72;5095960;28;20189;-62
2024/01/25 06:44:41;;;;;;;6.90;2.80;;;;;;;4.27;100.00;97479.25;5096212;28;20100;-62
2024/01/25 06:47:08;;;;;;;4.65;2.78;;;;;;;4.40;100.00;97490.69;5095723;28;20066;-63
2024/01/25 06:49:34;;;;;;;3.58;2.67;;;;;;;4.21;100.00;97492.34;5096250;28;20138;-64
2024/01/25 06:52:00;;;;;;;9.90;4.28;;;;;;;4.21;100.00;97494.25;5096108;28;20143;-64
2024/01/25 06:54:26;;;;;;;3.20;2.60;;;;;;;4.22;100.00;97484.97;5095850;28;20428;-64
2024/01/25 06:56:56;;;;;;;4.00;2.72;;;;;;;4.23;100.00;97481.91;5095850;28;20380;-61
2024/01/25 06:59:22;;;;;;;10.55;2.90;;;;;;;4.34;100.00;97486.72;5098984;28;20436;-63
2024/01/25 07:01:48;;;;;;;7.68;3.15;;;;;;;4.37;100.00;97499.56;5099431;28;20365;-61
2024/01/25 07:04:14;;;;;;;4.28;2.80;;;;;;;4.43;100.00;97495.38;5099120;28;20058;-62
2024/01/25 07:06:40;;;;;;;5.97;3.55;;;;;;;4.23;100.00;97505.50;5099298;28;20408;-62
2024/01/25 07:09:07;;;;;;;4.43;2.90;;;;;;;4.31;100.00;97499.06;5099144;28;20062;-63
2024/01/25 07:11:33;;;;;;;7.45;3.17;;;;;;;4.30;100.00;97502.13;5099350;28;20117;-62
2024/01/25 07:14:00;;;;;;;3.83;2.92;;;;;;;4.50;100.00;97509.06;5098984;28;20048;-63
2024/01/25 07:16:26;;;;;;;6.15;2.25;;;;;;;4.52;100.00;97514.88;5099219;28;20143;-63
2024/01/25 07:18:52;;;;;;;3.90;1.95;;;;;;;4.40;100.00;97513.19;5098815;28;20048;-63
2024/01/25 07:21:18;;;;;;;3.65;2.38;;;;;;;4.47;100.00;97518.72;5098477;28;20051;-62
2024/01/25 07:23:45;;;;;;;7.85;3.17;;;;;;;4.64;100.00;97517.41;5098215;28;20059;-61
2024/01/25 07:26:17;;;;;;;4.55;3.08;;;;;;;4.69;100.00;97519.78;5098887;28;20142;-62
2024/01/25 07:28:43;;;;;;;3.90;2.38;;;;;;;4.55;100.00;97521.53;5098944;28;20052;-61
2024/01/25 07:31:10;;;;;;;14.45;7.15;;;;;;;4.59;100.00;97525.84;5098734;28;20048;-64
2024/01/25 07:33:37;;;;;;;11.00;2.92;;;;;;;4.83;100.00;97532.00;5098473;28;20051;-61
2024/01/25 07:36:03;;;;;;;3.53;2.10;;;;;;;4.51;100.00;97531.56;5098517;28;20412;-63
2024/01/25 07:38:29;;;;;;;2.25;2.05;;;;;;;4.90;100.00;97524.75;5099147;28;20093;-62
2024/01/25 07:40:56;;;;;;;1.60;1.50;;;;;;;4.96;100.00;97546.94;5098508;28;20143;-61
2024/01/25 07:43:22;;;;;;;4.38;2.17;;;;;;;4.97;100.00;97542.31;5099007;28;20059;-63
2024/01/25 07:45:48;;;;;;;3.80;1.80;;;;;;;4.72;100.00;97529.16;5098092;28;20056;-63
2024/01/25 07:48:15;;;;;;;4.03;2.03;;;;;;;4.88;100.00;97537.91;5098479;28;20193;-65
2024/01/25 07:50:41;;;;;;;7.07;2.85;;;;;;;4.80;100.00;97535.44;5098546;28;20094;-64
2024/01/25 07:53:08;;;;;;;3.20;1.80;;;;;;;4.53;100.00;97535.44;5098583;28;20087;-66
2024/01/25 07:55:34;;;;;;;2.47;1.95;;;;;;;4.65;100.00;97548.81;5098695;28;20056;-66
2024/01/25 07:58:00;;;;;;;10.15;2.25;;;;;;;4.73;100.00;97538.84;5098574;28;20108;-65
2024/01/25 08:00:26;;;;;;;2.05;1.75;;;;;;;4.48;100.00;97538.47;5098605;28;20052;-64
2024/01/25 08:02:52;;;;;;;2.88;1.88;;;;;;;4.39;100.00;97532.50;5098269;28;20051;-66
2024/01/25 08:05:19;;;;;;;4.65;2.42;;;;;;;4.42;100.00;97551.56;5098442;28;20052;-61
2024/01/25 08:07:46;;;;;;;1.70;1.60;;;;;;;4.42;100.00;97546.13;5098172;28;20044;-64
2024/01/25 08:10:13;;;;;;;1.50;1.40;;;;;;;4.25;100.00;97547.41;5097145;28;20059;-64
2024/01/25 08:12:39;;;;;;;2.00;1.60;;;;;;;4.76;100.00;97543.53;5097916;28;20048;-64
2024/01/25 08:15:07;;;;;;;1.65;1.08;;;;;;;4.62;100.00;97544.13;5098516;28;20116;-63
2024/01/25 08:17:35;;;;;;;2.00;1.50;;;;;;;4.19;100.00;97542.66;5098275;28;20139;-64
2024/01/25 08:20:02;;;;;;;3.58;1.73;;;;;;;4.40;100.00;97542.25;5097825;28;20066;-63
2024/01/25 08:22:29;;;;;;;3.72;1.70;;;;;;;4.77;100.00;97560.66;5098211;28;20366;-62
2024/01/25 08:24:55;;;;;;;2.65;1.73;;;;;;;4.62;100.00;97554.19;5097955;28;20070;-65
2024/01/25 08:27:21;;;;;;;2.05;1.35;;;;;;;4.85;100.00;97544.06;5098253;28;20144;-63
2024/01/25 08:29:47;;;;;;;1.45;1.40;;;;;;;4.94;100.00;97546.53;5098104;28;20143;-62
2024/01/25 08:32:13;;;;;;;3.40;2.05;;;;;;;4.85;100.00;97537.88;5098026;28;20432;-65
2024/01/25 08:34:40;;;;;;;3.58;1.80;;;;;;;4.71;100.00;97522.16;5097724;28;20131;-62
2024/01/25 08:37:06;;;;;;;8.40;3.33;;;;;;;4.25;100.00;97514.09;5098056;28;20104;-64
2024/01/25 08:39:33;;;;;;;5.07;1.85;;;;;;;4.49;100.00;97531.91;5097425;28;20387;-64
2024/01/25 08:42:01;;;;;;;4.10;1.67;;;;;;;4.65;100.00;97531.75;5097592;28;20400;-64
2024/01/25 08:44:28;;;;;;;1.30;1.20;;;;;;;4.65;100.00;97529.03;5097521;28;20135;-66
2024/01/25 08:46:54;;;;;;;7.70;1.60;;;;;;;4.52;100.00;97516.81;5097878;28;20328;-64
2024/01/25 08:49:20;;;;;;;2.25;1.75;;;;;;;4.57;100.00;97521.97;5097796;28;20135;-66
2024/01/25 08:51:46;;;;;;;1.92;1.73;;;;;;;4.56;100.00;97533.94;5097738;28;20143;-63
2024/01/25 08:54:12;;;;;;;5.25;2.42;;;;;;;4.45;100.00;97541.91;5097571;28;20498;-68
2024/01/25 08:56:39;;;;;;;2.88;1.67;;;;;;;4.65;100.00;97550.75;5097299;28;20139;-64
2024/01/25 08:59:05;;;;;;;1.40;1.30;;;;;;;4.29;100.00;97542.03;5097886;28;20170;-65
2024/01/25 09:01:32;;;;;;;2.05;1.60;;;;;;;4.27;100.00;97570.72;5097393;28;20092;-64
2024/01/25 09:04:02;;;;;;;2.28;1.40;;;;;;;3.75;100.00;97572.88;5097867;28;20156;-63
2024/01/25 09:06:28;;;;;;;4.55;2.70;;;;;;;3.93;100.00;97581.31;5097413;28;20052;-65
2024/01/25 09:08:55;;;;;;;2.78;1.60;;;;;;;3.99;100.00;97586.09;5097486;28;20044;-65
2024/01/25 09:11:21;;;;;;;1.90;1.58;;;;;;;4.00;100.00;97592.31;5097323;28;20142;-64
2024/01/25 09:13:48;;;;;;;2.47;1.58;;;;;;;3.95;100.00;97579.03;5097396;28;20055;-67
2024/01/25 09:16:14;;;;;;;1.75;1.48;;;;;;;3.91;100.00;97578.19;5097210;28;20066;-64
2024/01/25 09:18:40;;;;;;;4.97;1.52;;;;;;;4.25;100.00;97579.97;5097427;28;20051;-66
2024/01/25 09:21:06;;;;;;;5.53;2.33;;;;;;;4.17;100.00;97591.06;5096790;28;20062;-65
2024/01/25 09:23:33;;;;;;;5.30;2.38;;;;;;;3.77;100.00;97582.22;5097429;28;20051;-65
2024/01/25 09:25:59;;;;;;;1.45;1.25;;;;;;;4.00;100.00;97598.53;5097197;28;20140;-64
2024/01/25 09:28:25;;;;;;;2.10;1.50;;;;;;;4.00;100.00;97595.81;5097100;28;20135;-67
2024/01/25 09:30:52;;;;;;;1.42;1.33;;;;;;;4.34;100.00;97592.53;5097385;28;20044;-67
2024/01/25 09:33:18;;;;;;;1.67;1.20;;;;;;;4.36;100.00;97582.84;5097196;28;20483;-71
2024/01/25 09:35:47;;;;;;;1.20;1.10;;;;;;;4.10;100.00;97574.66;5097386;28;20108;-67
2024/01/25 09:38:13;;;;;;;4.75;2.47;;;;;;;4.19;100.00;97594.97;5096769;28;20044;-66
2024/01/25 09:40:39;;;;;;;2.47;1.80;;;;;;;4.11;100.00;97581.66;5097280;28;20328;-68
2024/01/25 09:43:06;;;;;;;1.58;1.17;;;;;;;4.37;100.00;97578.25;5097166;28;20143;-67
2024/01/25 09:45:32;;;;;;;4.68;1.75;;;;;;;4.33;100.00;97571.94;5096866;28;20048;-68
2024/01/25 09:47:59;;;;;;;2.03;1.40;;;;;;;4.31;100.00;97564.19;5096765;28;20052;-69
2024/01/25 09:50:26;;;;;;;2.17;1.52;;;;;;;4.34;100.00;97549.13;5096491;28;20059;-64
2024/01/25 09:52:55;;;;;;;1.58;1.35;;;;;;;3.64;100.00;97526.59;5096827;28;20189;-65
2024/01/25 09:55:25;;;;;;;1.70;1.58;;;;;;;4.14;100.00;97568.16;5096468;28;20346;-66
2024/01/25 09:57:53;;;;;;;1.65;1.55;;;;;;;3.87;100.00;97556.44;5096870;28;20193;-66
2024/01/25 10:00:21;;;;;;;4.05;1.38;;;;;;;3.71;100.00;97550.34;5096504;28;20134;-66
2024/01/25 10:02:49;;;;;;;2.35;1.40;;;;;;;4.20;100.00;97572.16;5096964;28;20462;-65
2024/01/25 10:05:16;;;;;;;1.40;1.30;;;;;;;4.15;100.00;97552.66;5096383;28;20060;-66
2024/01/25 10:07:43;;;;;;;1.98;1.85;;;;;;;4.05;100.00;97553.28;5096744;28;20104;-66
2024/01/25 10:10:10;;;;;;;2.28;2.00;;;;;;;3.75;100.00;97573.66;5096159;28;20531;-65
2024/01/25 10:12:37;;;;;;;2.10;1.50;;;;;;;4.08;100.00;97598.66;5096287;28;20058;-65
2024/01/25 10:15:05;;;;;;;1.63;1.52;;;;;;;4.34;100.00;97600.66;5096485;28;20391;-65
2024/01/25 10:17:31;;;;;;;2.50;1.73;;;;;;;4.18;100.00;97573.66;5096285;28;20059;-66
2024/01/25 10:19:58;;;;;;;1.90;1.70;;;;;;;4.06;100.00;97566.44;5095755;28;20048;-65
2024/01/25 10:22:26;;;;;;;3.38;1.98;;;;;;;4.28;100.00;97556.00;5096349;28;20134;-66
2024/01/25 10:24:53;;;;;;;12.35;2.28;;;;;;;4.21;100.00;97543.09;5096222;28;20044;-65
2024/01/25 10:27:20;;;;;;;3.15;1.65;;;;;;;4.18;100.00;97546.53;5096030;28;20044;-66
2024/01/25 10:29:46;;;;;;;4.20;1.73;;;;;;;4.28;100.00;97537.00;5096056;28;20055;-66
2024/01/25 10:32:12;;;;;;;4.35;2.08;;;;;;;3.98;100.00;97518.69;5094858;28;20052;-72
2024/01/25 10:34:39;;;;;;;2.13;1.92;;;;;;;4.13;100.00;97509.66;5095907;28;20079;-66
2024/01/25 10:37:06;;;;;;;2.00;1.45;;;;;;;4.17;100.00;97525.97;5096331;28;20357;-65
2024/01/25 10:39:34;;;;;;;2.20;1.67;;;;;;;4.23;100.00;97533.44;5096028;28;20063;-65
2024/01/25 10:42:00;;;;;;;3.17;1.80;;;;;;;4.28;100.00;97547.84;5096085;28;20059;-65
2024/01/25 10:44:27;;;;;;;5.40;2.05;;;;;;;4.17;100.00;97542.25;5096007;28;20063;-63
2024/01/25 10:46:54;;;;;;;2.85;1.88;;;;;;;4.32;100.00;97535.13;5096048;28;20390;-62
2024/01/25 10:49:21;;;;;;;3.33;2.53;;;;;;;3.97;100.00;97555.09;5095827;28;20055;-64
2024/01/25 10:51:48;;;;;;;2.83;1.42;;;;;;;4.15;100.00;97555.38;5096015;28;20091;-64
2024/01/25 10:54:15;;;;;;;1.10;1.10;;;;;;;4.43;100.00;97565.91;5095571;28;20059;-63
2024/01/25 10:56:42;;;;;;;1.50;1.40;;;;;;;4.40;100.00;97523.25;5095923;28;20052;-63
2024/01/25 10:59:09;;;;;;;5.13;2.10;;;;;;;4.42;100.00;97483.72;5095628;28;20177;-65
2024/01/25 11:01:35;;;;;;;2.40;1.65;;;;;;;4.22;100.00;97450.50;5096029;28;20055;-67
2024/01/25 11:04:01;;;;;;;4.30;3.40;;;;;;;4.14;100.00;97467.81;5095584;28;20336;-66
2024/01/25 11:06:28;;;;;;;13.70;5.68;;;;;;;4.17;100.00;97477.16;5095683;28;20078;-65
2024/01/25 11:09:05;;;;;;;13.60;5.78;;;;;;;3.99;100.00;97491.19;5095924;28;20146;-64
2024/01/25 11:11:31;;;;;;;5.00;2.33;;;;;;;4.15;100.00;97523.63;5095719;28;20048;-64
2024/01/25 11:13:59;;;;;;;13.73;6.05;;;;;;;4.12;100.00;97508.06;5095688;28;20058;-63
2024/01/25 11:16:29;;;;;;;4.63;3.25;;;;;;;3.75;100.00;97537.63;5095447;28;20151;-63
2024/01/25 11:18:58;;;;;;;2.75;1.80;;;;;;;4.23;100.00;97562.47;5095611;28;20259;-63
2024/01/25 11:21:29;;;;;;;1.63;1.50;;;;;;;4.22;100.00;97553.56;5095287;28;20066;-64
2024/01/25 11:24:02;;;;;;;4.47;2.15;;;;;;;3.90;100.00;97538.66;5095711;28;20051;-63
2024/01/25 11:26:28;;;;;;;3.20;2.90;;;;;;;3.95;100.00;97573.63;5095087;28;20390;-59
2024/01/25 11:28:55;;;;;;;1.60;1.50;;;;;;;4.04;100.00;97576.13;5095540;28;20048;-65